createdAt,value
2023-05-21T00:00:52.000Z,13.63
2023-05-21T00:01:56.000Z,13.58
2023-05-21T00:03:00.000Z,13.57
2023-05-21T00:04:04.000Z,13.57
2023-05-21T00:05:08.000Z,13.55
2023-05-21T00:06:11.000Z,13.54
2023-05-21T00:07:15.000Z,13.54
2023-05-21T00:08:19.000Z,13.53
2023-05-21T00:09:23.000Z,13.53
2023-05-21T00:10:27.000Z,13.53
2023-05-21T00:11:30.000Z,13.47
2023-05-21T00:12:34.000Z,13.46
2023-05-21T00:13:38.000Z,13.45
2023-05-21T00:14:42.000Z,13.42
2023-05-21T00:15:45.000Z,13.4
2023-05-21T00:16:49.000Z,13.39
2023-05-21T00:17:53.000Z,13.38
2023-05-21T00:18:57.000Z,13.35
2023-05-21T00:20:01.000Z,13.32
2023-05-21T00:21:04.000Z,13.3
2023-05-21T00:22:08.000Z,13.27
2023-05-21T00:23:12.000Z,13.26
2023-05-21T00:24:16.000Z,13.21
2023-05-21T00:25:20.000Z,13.19
2023-05-21T00:26:23.000Z,13.17
2023-05-21T00:27:27.000Z,13.14
2023-05-21T00:28:31.000Z,13.13
2023-05-21T00:29:35.000Z,13.13
2023-05-21T00:30:39.000Z,13.09
2023-05-21T00:31:42.000Z,13.09
2023-05-21T00:32:46.000Z,13.11
2023-05-21T00:33:50.000Z,13.09
2023-05-21T00:34:54.000Z,13.11
2023-05-21T00:35:58.000Z,13.13
2023-05-21T00:37:01.000Z,13.13
2023-05-21T00:38:05.000Z,13.13
2023-05-21T00:39:09.000Z,13.09
2023-05-21T00:40:13.000Z,13.09
2023-05-21T00:41:16.000Z,13.11
2023-05-21T00:42:20.000Z,13.13
2023-05-21T00:43:24.000Z,13.13
2023-05-21T00:44:29.000Z,13.13
2023-05-21T00:45:33.000Z,13.13
2023-05-21T00:46:36.000Z,13.14
2023-05-21T00:47:40.000Z,13.16
2023-05-21T00:48:44.000Z,13.14
2023-05-21T00:49:48.000Z,13.14
2023-05-21T00:50:51.000Z,13.16
2023-05-21T00:51:55.000Z,13.16
2023-05-21T00:52:59.000Z,13.16
2023-05-21T00:54:03.000Z,13.17
2023-05-21T00:55:07.000Z,13.19
2023-05-21T00:56:11.000Z,13.19
2023-05-21T00:57:14.000Z,13.19
2023-05-21T00:58:18.000Z,13.17
2023-05-21T00:59:22.000Z,13.19
2023-05-21T01:00:26.000Z,13.2
2023-05-21T01:01:29.000Z,13.2
2023-05-21T01:02:33.000Z,13.2
2023-05-21T01:03:37.000Z,13.17
2023-05-21T01:04:41.000Z,13.19
2023-05-21T01:05:45.000Z,13.19
2023-05-21T01:06:49.000Z,13.19
2023-05-21T01:07:52.000Z,13.17
2023-05-21T01:08:56.000Z,13.17
2023-05-21T01:10:00.000Z,13.16
2023-05-21T01:11:04.000Z,13.14
2023-05-21T01:12:07.000Z,13.11
2023-05-21T01:13:11.000Z,13.09
2023-05-21T01:14:15.000Z,13.09
2023-05-21T01:15:19.000Z,13.06
2023-05-21T01:16:23.000Z,13.06
2023-05-21T01:17:26.000Z,13.06
2023-05-21T01:18:30.000Z,13.05
2023-05-21T01:19:34.000Z,13.04
2023-05-21T01:20:38.000Z,13.02
2023-05-21T01:21:42.000Z,13.01
2023-05-21T01:22:45.000Z,12.98
2023-05-21T01:23:49.000Z,12.98
2023-05-21T01:24:53.000Z,12.93
2023-05-21T01:25:57.000Z,12.9
2023-05-21T01:27:01.000Z,12.87
2023-05-21T01:28:04.000Z,12.81
2023-05-21T01:29:08.000Z,12.79
2023-05-21T01:30:12.000Z,12.76
2023-05-21T01:31:16.000Z,12.73
2023-05-21T01:32:19.000Z,12.73
2023-05-21T01:33:23.000Z,12.73
2023-05-21T01:34:27.000Z,12.69
2023-05-21T01:35:31.000Z,12.69
2023-05-21T01:36:34.000Z,12.65
2023-05-21T01:37:38.000Z,12.61
2023-05-21T01:38:42.000Z,12.62
2023-05-21T01:39:46.000Z,12.62
2023-05-21T01:40:50.000Z,12.58
2023-05-21T01:41:53.000Z,12.55
2023-05-21T01:42:57.000Z,12.53
2023-05-21T01:44:01.000Z,12.5
2023-05-21T01:45:05.000Z,12.5
2023-05-21T01:46:09.000Z,12.5
2023-05-21T01:47:13.000Z,12.48
2023-05-21T01:48:16.000Z,12.46
2023-05-21T01:49:20.000Z,12.47
2023-05-21T01:50:24.000Z,12.46
2023-05-21T01:51:28.000Z,12.43
2023-05-21T01:52:31.000Z,12.44
2023-05-21T01:53:35.000Z,12.43
2023-05-21T01:54:39.000Z,12.4
2023-05-21T01:55:43.000Z,12.4
2023-05-21T01:56:46.000Z,12.41
2023-05-21T01:57:50.000Z,12.35
2023-05-21T01:58:54.000Z,12.35
2023-05-21T01:59:58.000Z,12.33
2023-05-21T02:01:02.000Z,12.32
2023-05-21T02:02:05.000Z,12.33
2023-05-21T02:03:09.000Z,12.32
2023-05-21T02:04:13.000Z,12.3
2023-05-21T02:05:17.000Z,12.28
2023-05-21T02:06:21.000Z,12.28
2023-05-21T02:07:24.000Z,12.29
2023-05-21T02:08:28.000Z,12.26
2023-05-21T02:09:32.000Z,12.23
2023-05-21T02:10:36.000Z,12.22
2023-05-21T02:11:39.000Z,12.22
2023-05-21T02:12:43.000Z,12.22
2023-05-21T02:13:47.000Z,12.17
2023-05-21T02:14:51.000Z,12.14
2023-05-21T02:15:54.000Z,12.13
2023-05-21T02:16:58.000Z,12.14
2023-05-21T02:18:02.000Z,12.14
2023-05-21T02:19:06.000Z,12.11
2023-05-21T02:20:10.000Z,12.11
2023-05-21T02:21:13.000Z,12.11
2023-05-21T02:22:17.000Z,12.08
2023-05-21T02:23:21.000Z,12.07
2023-05-21T02:24:25.000Z,12.04
2023-05-21T02:25:28.000Z,12.03
2023-05-21T02:26:32.000Z,12.0
2023-05-21T02:27:36.000Z,12.0
2023-05-21T02:28:40.000Z,11.99
2023-05-21T02:29:43.000Z,12.0
2023-05-21T02:30:47.000Z,12.0
2023-05-21T02:31:51.000Z,12.0
2023-05-21T02:32:55.000Z,11.97
2023-05-21T02:33:58.000Z,11.99
2023-05-21T02:35:02.000Z,11.97
2023-05-21T02:36:06.000Z,11.97
2023-05-21T02:37:11.000Z,11.97
2023-05-21T02:38:15.000Z,11.97
2023-05-21T02:39:18.000Z,11.97
2023-05-21T02:40:22.000Z,11.99
2023-05-21T02:41:26.000Z,11.99
2023-05-21T02:42:30.000Z,11.97
2023-05-21T02:43:34.000Z,11.99
2023-05-21T02:44:37.000Z,12.0
2023-05-21T02:45:41.000Z,12.0
2023-05-21T02:46:45.000Z,11.97
2023-05-21T02:47:49.000Z,11.97
2023-05-21T02:48:53.000Z,11.97
2023-05-21T02:49:56.000Z,11.99
2023-05-21T02:51:00.000Z,11.99
2023-05-21T02:52:04.000Z,11.99
2023-05-21T02:53:08.000Z,11.99
2023-05-21T02:54:11.000Z,12.0
2023-05-21T02:55:15.000Z,12.0
2023-05-21T02:56:24.000Z,12.0
2023-05-21T02:57:28.000Z,11.99
2023-05-21T02:58:32.000Z,12.0
2023-05-21T02:59:35.000Z,11.99
2023-05-21T03:00:39.000Z,12.0
2023-05-21T03:01:43.000Z,11.99
2023-05-21T03:02:47.000Z,12.0
2023-05-21T03:03:51.000Z,12.03
2023-05-21T03:04:54.000Z,12.03
2023-05-21T03:05:58.000Z,12.03
2023-05-21T03:07:02.000Z,12.03
2023-05-21T03:08:06.000Z,12.03
2023-05-21T03:09:15.000Z,12.04
2023-05-21T03:10:18.000Z,12.05
2023-05-21T03:11:22.000Z,12.05
2023-05-21T03:12:31.000Z,12.07
2023-05-21T03:13:35.000Z,12.08
2023-05-21T03:14:39.000Z,12.07
2023-05-21T03:15:43.000Z,12.07
2023-05-21T03:16:46.000Z,12.05
2023-05-21T03:17:50.000Z,12.04
2023-05-21T03:18:54.000Z,12.0
2023-05-21T03:19:58.000Z,11.93
2023-05-21T03:21:01.000Z,11.96
2023-05-21T03:22:05.000Z,11.96
2023-05-21T03:23:09.000Z,11.93
2023-05-21T03:24:13.000Z,11.89
2023-05-21T03:25:17.000Z,11.89
2023-05-21T03:26:20.000Z,11.93
2023-05-21T03:27:24.000Z,11.95
2023-05-21T03:28:28.000Z,11.95
2023-05-21T03:29:32.000Z,11.96
2023-05-21T03:30:36.000Z,11.97
2023-05-21T03:31:40.000Z,11.99
2023-05-21T03:32:44.000Z,12.03
2023-05-21T03:33:47.000Z,12.05
2023-05-21T03:34:51.000Z,12.07
2023-05-21T03:35:55.000Z,12.1
2023-05-21T03:36:59.000Z,12.13
2023-05-21T03:38:03.000Z,12.15
2023-05-21T03:39:06.000Z,12.17
2023-05-21T03:40:10.000Z,12.22
2023-05-21T03:41:14.000Z,12.25
2023-05-21T03:42:18.000Z,12.23
2023-05-21T03:43:21.000Z,12.25
2023-05-21T03:44:25.000Z,12.25
2023-05-21T03:45:29.000Z,12.28
2023-05-21T03:46:33.000Z,12.29
2023-05-21T03:47:37.000Z,12.32
2023-05-21T03:48:40.000Z,12.29
2023-05-21T03:49:44.000Z,12.26
2023-05-21T03:50:48.000Z,12.28
2023-05-21T03:51:52.000Z,12.3
2023-05-21T03:52:56.000Z,12.3
2023-05-21T03:53:59.000Z,12.33
2023-05-21T03:55:03.000Z,12.35
2023-05-21T03:56:07.000Z,12.35
2023-05-21T03:57:11.000Z,12.35
2023-05-21T03:58:15.000Z,12.38
2023-05-21T03:59:19.000Z,12.4
2023-05-21T04:00:22.000Z,12.44
2023-05-21T04:01:26.000Z,12.48
2023-05-21T04:02:30.000Z,12.51
2023-05-21T04:03:34.000Z,12.53
2023-05-21T04:04:37.000Z,12.58
2023-05-21T04:05:41.000Z,12.63
2023-05-21T04:06:45.000Z,12.66
2023-05-21T04:07:49.000Z,12.71
2023-05-21T04:08:52.000Z,12.8
2023-05-21T04:09:56.000Z,12.96
2023-05-21T04:11:00.000Z,13.27
2023-05-21T04:12:04.000Z,13.65
2023-05-21T04:13:08.000Z,14.08
2023-05-21T04:14:11.000Z,14.53
2023-05-21T04:15:15.000Z,14.92
2023-05-21T04:16:19.000Z,14.95
2023-05-21T04:17:23.000Z,14.93
2023-05-21T04:18:26.000Z,14.78
2023-05-21T04:19:30.000Z,14.53
2023-05-21T04:20:34.000Z,14.36
2023-05-21T04:21:38.000Z,14.12
2023-05-21T04:22:42.000Z,13.97
2023-05-21T04:23:45.000Z,13.85
2023-05-21T04:24:49.000Z,13.8
2023-05-21T04:25:53.000Z,13.8
2023-05-21T04:26:57.000Z,13.82
2023-05-21T04:28:00.000Z,13.83
2023-05-21T04:29:04.000Z,13.83
2023-05-21T04:30:08.000Z,13.85
2023-05-21T04:31:12.000Z,13.85
2023-05-21T04:32:16.000Z,13.82
2023-05-21T04:33:20.000Z,13.8
2023-05-21T04:34:23.000Z,13.82
2023-05-21T04:35:27.000Z,13.8
2023-05-21T04:36:31.000Z,13.9
2023-05-21T04:37:35.000Z,13.91
2023-05-21T04:38:38.000Z,13.94
2023-05-21T04:39:42.000Z,13.88
2023-05-21T04:40:46.000Z,13.9
2023-05-21T04:41:50.000Z,13.91
2023-05-21T04:42:54.000Z,13.96
2023-05-21T04:43:58.000Z,13.93
2023-05-21T04:45:01.000Z,13.96
2023-05-21T04:46:05.000Z,14.01
2023-05-21T04:47:09.000Z,14.04
2023-05-21T04:48:13.000Z,14.04
2023-05-21T04:49:16.000Z,14.11
2023-05-21T04:50:20.000Z,14.05
2023-05-21T04:51:24.000Z,14.05
2023-05-21T04:52:28.000Z,14.03
2023-05-21T04:53:31.000Z,14.01
2023-05-21T04:54:35.000Z,13.97
2023-05-21T04:55:39.000Z,13.97
2023-05-21T04:56:43.000Z,13.97
2023-05-21T04:57:47.000Z,13.97
2023-05-21T04:58:50.000Z,13.96
2023-05-21T04:59:54.000Z,13.98
2023-05-21T05:00:58.000Z,13.97
2023-05-21T05:02:02.000Z,14.03
2023-05-21T05:03:06.000Z,14.09
2023-05-21T05:04:09.000Z,14.09
2023-05-21T05:05:13.000Z,14.13
2023-05-21T05:06:17.000Z,14.23
2023-05-21T05:07:21.000Z,14.3
2023-05-21T05:08:24.000Z,14.33
2023-05-21T05:09:28.000Z,14.37
2023-05-21T05:10:32.000Z,14.37
2023-05-21T05:11:36.000Z,14.38
2023-05-21T05:12:39.000Z,14.4
2023-05-21T05:13:43.000Z,14.52
2023-05-21T05:14:47.000Z,14.49
2023-05-21T05:15:51.000Z,14.56
2023-05-21T05:16:55.000Z,14.51
2023-05-21T05:17:58.000Z,14.48
2023-05-21T05:19:02.000Z,14.45
2023-05-21T05:20:06.000Z,14.44
2023-05-21T05:21:10.000Z,14.53
2023-05-21T05:22:14.000Z,14.63
2023-05-21T05:23:17.000Z,14.64
2023-05-21T05:24:21.000Z,14.74
2023-05-21T05:25:25.000Z,14.79
2023-05-21T05:26:29.000Z,14.89
2023-05-21T05:27:33.000Z,14.95
2023-05-21T05:28:36.000Z,14.96
2023-05-21T05:29:40.000Z,15.01
2023-05-21T05:30:44.000Z,15.11
2023-05-21T05:31:48.000Z,15.17
2023-05-21T05:32:51.000Z,15.3
2023-05-21T05:33:55.000Z,15.48
2023-05-21T05:34:59.000Z,15.58
2023-05-21T05:36:03.000Z,15.6
2023-05-21T05:37:07.000Z,15.65
2023-05-21T05:38:11.000Z,15.83
2023-05-21T05:39:15.000Z,15.83
2023-05-21T05:40:18.000Z,15.98
2023-05-21T05:41:22.000Z,15.99
2023-05-21T05:42:26.000Z,16.05
2023-05-21T05:43:30.000Z,16.17
2023-05-21T05:44:33.000Z,16.17
2023-05-21T05:45:37.000Z,16.24
2023-05-21T05:46:41.000Z,16.37
2023-05-21T05:47:45.000Z,16.39
2023-05-21T05:48:48.000Z,16.47
2023-05-21T05:49:52.000Z,16.4
2023-05-21T05:50:56.000Z,16.39
2023-05-21T05:52:00.000Z,16.47
2023-05-21T05:53:04.000Z,16.69
2023-05-21T05:54:08.000Z,16.74
2023-05-21T05:55:11.000Z,16.8
2023-05-21T05:56:15.000Z,16.92
2023-05-21T05:57:19.000Z,16.99
2023-05-21T05:58:23.000Z,16.87
2023-05-21T05:59:26.000Z,16.83
2023-05-21T06:00:30.000Z,16.84
2023-05-21T06:01:34.000Z,16.94
2023-05-21T06:02:38.000Z,17.04
2023-05-21T06:03:42.000Z,17.13
2023-05-21T06:04:45.000Z,17.12
2023-05-21T06:05:49.000Z,17.13
2023-05-21T06:06:53.000Z,17.16
2023-05-21T06:07:57.000Z,17.19
2023-05-21T06:09:01.000Z,17.28
2023-05-21T06:10:04.000Z,17.31
2023-05-21T06:11:08.000Z,17.39
2023-05-21T06:12:12.000Z,17.59
2023-05-21T06:13:16.000Z,17.71
2023-05-21T06:14:19.000Z,17.76
2023-05-21T06:15:23.000Z,18.01
2023-05-21T06:16:27.000Z,18.08
2023-05-21T06:17:31.000Z,17.94
2023-05-21T06:18:35.000Z,17.9
2023-05-21T06:19:38.000Z,17.96
2023-05-21T06:20:42.000Z,18.11
2023-05-21T06:21:46.000Z,18.09
2023-05-21T06:22:50.000Z,18.13
2023-05-21T06:23:54.000Z,18.17
2023-05-21T06:24:57.000Z,18.26
2023-05-21T06:26:01.000Z,18.34
2023-05-21T06:27:05.000Z,18.41
2023-05-21T06:28:14.000Z,18.43
2023-05-21T06:29:18.000Z,18.42
2023-05-21T06:30:22.000Z,18.52
2023-05-21T06:31:25.000Z,18.64
2023-05-21T06:32:29.000Z,18.74
2023-05-21T06:33:33.000Z,18.76
2023-05-21T06:34:42.000Z,18.79
2023-05-21T06:35:45.000Z,18.76
2023-05-21T06:36:49.000Z,18.81
2023-05-21T06:37:53.000Z,18.94
2023-05-21T06:38:57.000Z,19.04
2023-05-21T06:40:01.000Z,19.17
2023-05-21T06:41:04.000Z,19.22
2023-05-21T06:42:08.000Z,19.15
2023-05-21T06:43:12.000Z,19.0
2023-05-21T06:44:16.000Z,18.93
2023-05-21T06:45:20.000Z,19.01
2023-05-21T06:46:28.000Z,18.93
2023-05-21T06:47:32.000Z,18.98
2023-05-21T06:48:36.000Z,19.12
2023-05-21T06:49:40.000Z,19.23
2023-05-21T06:50:44.000Z,19.24
2023-05-21T06:51:47.000Z,19.23
2023-05-21T06:52:51.000Z,19.31
2023-05-21T06:53:55.000Z,19.3
2023-05-21T06:54:59.000Z,19.37
2023-05-21T06:56:02.000Z,19.26
2023-05-21T06:57:06.000Z,19.17
2023-05-21T06:58:10.000Z,19.19
2023-05-21T06:59:14.000Z,19.17
2023-05-21T07:00:17.000Z,19.22
2023-05-21T07:01:21.000Z,19.38
2023-05-21T07:02:25.000Z,19.37
2023-05-21T07:03:29.000Z,19.42
2023-05-21T07:04:33.000Z,19.34
2023-05-21T07:05:36.000Z,19.42
2023-05-21T07:06:40.000Z,19.47
2023-05-21T07:07:44.000Z,19.59
2023-05-21T07:08:48.000Z,19.7
2023-05-21T07:09:51.000Z,19.6
2023-05-21T07:10:55.000Z,19.57
2023-05-21T07:11:59.000Z,19.59
2023-05-21T07:13:03.000Z,19.64
2023-05-21T07:14:06.000Z,19.62
2023-05-21T07:15:10.000Z,19.68
2023-05-21T07:16:14.000Z,19.7
2023-05-21T07:17:18.000Z,19.81
2023-05-21T07:18:22.000Z,19.84
2023-05-21T07:19:25.000Z,19.94
2023-05-21T07:20:29.000Z,20.04
2023-05-21T07:21:33.000Z,20.11
2023-05-21T07:22:37.000Z,20.14
2023-05-21T07:23:41.000Z,20.14
2023-05-21T07:24:45.000Z,20.23
2023-05-21T07:25:49.000Z,20.19
2023-05-21T07:26:52.000Z,20.27
2023-05-21T07:27:56.000Z,20.34
2023-05-21T07:29:00.000Z,20.3
2023-05-21T07:30:04.000Z,20.3
2023-05-21T07:31:07.000Z,20.33
2023-05-21T07:32:11.000Z,20.36
2023-05-21T07:33:15.000Z,20.36
2023-05-21T07:34:19.000Z,20.36
2023-05-21T07:35:22.000Z,20.29
2023-05-21T07:36:26.000Z,20.33
2023-05-21T07:37:30.000Z,20.37
2023-05-21T07:38:34.000Z,20.5
2023-05-21T07:39:37.000Z,20.48
2023-05-21T07:40:41.000Z,20.34
2023-05-21T07:41:45.000Z,20.46
2023-05-21T07:42:49.000Z,20.5
2023-05-21T07:43:53.000Z,20.34
2023-05-21T07:44:56.000Z,20.3
2023-05-21T07:46:00.000Z,20.34
2023-05-21T07:47:04.000Z,20.39
2023-05-21T07:48:08.000Z,20.46
2023-05-21T07:49:11.000Z,20.6
2023-05-21T07:50:15.000Z,20.67
2023-05-21T07:51:24.000Z,20.65
2023-05-21T07:52:28.000Z,20.68
2023-05-21T07:53:32.000Z,20.74
2023-05-21T07:54:35.000Z,20.88
2023-05-21T07:55:39.000Z,20.92
2023-05-21T07:56:43.000Z,20.98
2023-05-21T07:57:47.000Z,21.11
2023-05-21T07:58:50.000Z,21.13
2023-05-21T07:59:54.000Z,21.26
2023-05-21T08:00:58.000Z,21.32
2023-05-21T08:02:02.000Z,21.38
2023-05-21T08:03:06.000Z,21.41
2023-05-21T08:04:09.000Z,21.43
2023-05-21T08:05:13.000Z,21.4
2023-05-21T08:06:17.000Z,21.47
2023-05-21T08:07:21.000Z,21.5
2023-05-21T08:08:25.000Z,21.51
2023-05-21T08:09:28.000Z,21.67
2023-05-21T08:10:32.000Z,21.75
2023-05-21T08:11:36.000Z,21.81
2023-05-21T08:12:40.000Z,21.96
2023-05-21T08:13:43.000Z,21.94
2023-05-21T08:14:47.000Z,21.91
2023-05-21T08:15:51.000Z,22.03
2023-05-21T08:16:55.000Z,22.0
2023-05-21T08:17:58.000Z,21.88
2023-05-21T08:19:02.000Z,21.98
2023-05-21T08:20:06.000Z,21.93
2023-05-21T08:21:10.000Z,21.96
2023-05-21T08:22:14.000Z,21.94
2023-05-21T08:23:18.000Z,22.0
2023-05-21T08:24:21.000Z,21.94
2023-05-21T08:25:25.000Z,21.91
2023-05-21T08:26:29.000Z,22.11
2023-05-21T08:27:33.000Z,22.19
2023-05-21T08:28:36.000Z,22.13
2023-05-21T08:29:40.000Z,22.33
2023-05-21T08:30:44.000Z,22.4
2023-05-21T08:31:48.000Z,22.38
2023-05-21T08:32:52.000Z,22.43
2023-05-21T08:33:55.000Z,22.41
2023-05-21T08:34:59.000Z,22.44
2023-05-21T08:36:03.000Z,22.59
2023-05-21T08:37:07.000Z,22.62
2023-05-21T08:38:10.000Z,22.67
2023-05-21T08:39:14.000Z,22.86
2023-05-21T08:40:18.000Z,23.1
2023-05-21T08:41:22.000Z,23.28
2023-05-21T08:42:26.000Z,23.48
2023-05-21T08:43:29.000Z,23.18
2023-05-21T08:44:33.000Z,23.07
2023-05-21T08:45:37.000Z,23.07
2023-05-21T08:46:41.000Z,23.13
2023-05-21T08:47:44.000Z,23.23
2023-05-21T08:48:48.000Z,23.15
2023-05-21T08:49:52.000Z,23.13
2023-05-21T08:50:56.000Z,23.17
2023-05-21T08:51:59.000Z,23.39
2023-05-21T08:53:03.000Z,23.63
2023-05-21T08:54:07.000Z,23.85
2023-05-21T08:55:11.000Z,23.97
2023-05-21T08:56:15.000Z,24.07
2023-05-21T08:57:18.000Z,24.03
2023-05-21T08:58:22.000Z,23.76
2023-05-21T08:59:26.000Z,23.66
2023-05-21T09:00:30.000Z,23.56
2023-05-21T09:01:34.000Z,23.86
2023-05-21T09:02:38.000Z,24.0
2023-05-21T09:03:41.000Z,23.94
2023-05-21T09:04:45.000Z,23.91
2023-05-21T09:05:49.000Z,23.7
2023-05-21T09:06:53.000Z,23.66
2023-05-21T09:07:56.000Z,23.76
2023-05-21T09:09:00.000Z,24.03
2023-05-21T09:10:04.000Z,24.28
2023-05-21T09:11:08.000Z,24.48
2023-05-21T09:12:12.000Z,24.44
2023-05-21T09:13:15.000Z,24.36
2023-05-21T09:14:19.000Z,24.1
2023-05-21T09:15:23.000Z,24.19
2023-05-21T09:16:27.000Z,24.18
2023-05-21T09:17:31.000Z,24.11
2023-05-21T09:18:35.000Z,24.16
2023-05-21T09:19:38.000Z,24.48
2023-05-21T09:20:42.000Z,24.76
2023-05-21T09:21:46.000Z,24.89
2023-05-21T09:22:50.000Z,25.19
2023-05-21T09:23:54.000Z,25.06
2023-05-21T09:24:57.000Z,25.01
2023-05-21T09:26:01.000Z,24.96
2023-05-21T09:27:05.000Z,25.03
2023-05-21T09:28:09.000Z,24.86
2023-05-21T09:29:13.000Z,25.01
2023-05-21T09:30:16.000Z,25.01
2023-05-21T09:31:20.000Z,25.08
2023-05-21T09:32:24.000Z,25.41
2023-05-21T09:33:28.000Z,25.66
2023-05-21T09:34:31.000Z,25.48
2023-05-21T09:35:35.000Z,25.49
2023-05-21T09:36:39.000Z,25.63
2023-05-21T09:37:43.000Z,25.58
2023-05-21T09:38:47.000Z,25.71
2023-05-21T09:39:50.000Z,25.83
2023-05-21T09:40:54.000Z,25.66
2023-05-21T09:41:58.000Z,25.73
2023-05-21T09:43:01.000Z,25.59
2023-05-21T09:44:05.000Z,25.31
2023-05-21T09:45:09.000Z,25.14
2023-05-21T09:46:13.000Z,24.89
2023-05-21T09:47:17.000Z,24.86
2023-05-21T09:48:21.000Z,24.86
2023-05-21T09:49:25.000Z,25.01
2023-05-21T09:50:29.000Z,24.97
2023-05-21T09:51:33.000Z,25.23
2023-05-21T09:52:36.000Z,25.19
2023-05-21T09:53:40.000Z,25.16
2023-05-21T09:54:44.000Z,25.49
2023-05-21T09:55:48.000Z,25.96
2023-05-21T09:56:52.000Z,26.27
2023-05-21T09:57:55.000Z,26.33
2023-05-21T09:58:59.000Z,26.33
2023-05-21T10:00:03.000Z,26.51
2023-05-21T10:01:07.000Z,26.75
2023-05-21T10:02:11.000Z,26.78
2023-05-21T10:03:14.000Z,26.76
2023-05-21T10:04:18.000Z,26.65
2023-05-21T10:05:22.000Z,26.51
2023-05-21T10:06:26.000Z,26.48
2023-05-21T10:07:29.000Z,26.68
2023-05-21T10:08:33.000Z,26.88
2023-05-21T10:09:37.000Z,27.0
2023-05-21T10:10:41.000Z,27.1
2023-05-21T10:11:44.000Z,26.61
2023-05-21T10:12:48.000Z,26.3
2023-05-21T10:13:52.000Z,26.31
2023-05-21T10:14:56.000Z,26.19
2023-05-21T10:16:00.000Z,26.56
2023-05-21T10:17:03.000Z,26.65
2023-05-21T10:18:07.000Z,26.71
2023-05-21T10:19:11.000Z,26.86
2023-05-21T10:20:15.000Z,26.67
2023-05-21T10:21:19.000Z,26.82
2023-05-21T10:22:23.000Z,27.03
2023-05-21T10:23:27.000Z,27.22
2023-05-21T10:24:30.000Z,27.01
2023-05-21T10:25:34.000Z,27.17
2023-05-21T10:26:38.000Z,26.86
2023-05-21T10:27:42.000Z,26.6
2023-05-21T10:28:45.000Z,26.68
2023-05-21T10:29:49.000Z,27.05
2023-05-21T10:30:53.000Z,27.2
2023-05-21T10:31:56.000Z,27.17
2023-05-21T10:33:00.000Z,27.25
2023-05-21T10:34:04.000Z,26.83
2023-05-21T10:35:08.000Z,26.83
2023-05-21T10:36:12.000Z,26.85
2023-05-21T10:37:16.000Z,26.75
2023-05-21T10:38:19.000Z,26.79
2023-05-21T10:39:23.000Z,26.89
2023-05-21T10:40:27.000Z,27.01
2023-05-21T10:41:31.000Z,26.98
2023-05-21T10:42:35.000Z,27.03
2023-05-21T10:43:39.000Z,26.8
2023-05-21T10:44:42.000Z,26.58
2023-05-21T10:45:46.000Z,26.73
2023-05-21T10:46:50.000Z,26.7
2023-05-21T10:47:54.000Z,26.48
2023-05-21T10:48:57.000Z,26.36
2023-05-21T10:50:01.000Z,26.67
2023-05-21T10:51:05.000Z,26.9
2023-05-21T10:52:09.000Z,27.2
2023-05-21T10:53:13.000Z,27.37
2023-05-21T10:54:16.000Z,27.5
2023-05-21T10:55:20.000Z,27.45
2023-05-21T10:56:24.000Z,26.82
2023-05-21T10:57:28.000Z,26.51
2023-05-21T10:58:32.000Z,26.61
2023-05-21T10:59:36.000Z,26.49
2023-05-21T11:00:39.000Z,26.36
2023-05-21T11:01:48.000Z,25.98
2023-05-21T11:02:52.000Z,25.66
2023-05-21T11:03:56.000Z,25.9
2023-05-21T11:05:00.000Z,26.23
2023-05-21T11:06:03.000Z,26.51
2023-05-21T11:07:07.000Z,26.88
2023-05-21T11:08:11.000Z,27.25
2023-05-21T11:09:15.000Z,27.42
2023-05-21T11:10:18.000Z,27.49
2023-05-21T11:11:22.000Z,27.6
2023-05-21T11:12:26.000Z,27.64
2023-05-21T11:13:30.000Z,27.61
2023-05-21T11:14:34.000Z,27.7
2023-05-21T11:15:37.000Z,27.41
2023-05-21T11:16:41.000Z,27.08
2023-05-21T11:17:45.000Z,27.53
2023-05-21T11:18:49.000Z,27.72
2023-05-21T11:19:53.000Z,27.68
2023-05-21T11:20:56.000Z,27.79
2023-05-21T11:22:00.000Z,28.27
2023-05-21T11:23:04.000Z,28.42
2023-05-21T11:24:08.000Z,28.34
2023-05-21T11:25:11.000Z,28.59
2023-05-21T11:26:15.000Z,28.64
2023-05-21T11:27:19.000Z,28.65
2023-05-21T11:28:23.000Z,28.65
2023-05-21T11:29:27.000Z,28.46
2023-05-21T11:30:31.000Z,28.5
2023-05-21T11:31:35.000Z,28.44
2023-05-21T11:32:39.000Z,28.07
2023-05-21T11:33:43.000Z,27.75
2023-05-21T11:34:46.000Z,27.85
2023-05-21T11:35:50.000Z,27.95
2023-05-21T11:36:54.000Z,27.93
2023-05-21T11:37:58.000Z,28.43
2023-05-21T11:39:02.000Z,28.34
2023-05-21T11:40:06.000Z,27.94
2023-05-21T11:41:09.000Z,28.0
2023-05-21T11:42:14.000Z,28.03
2023-05-21T11:43:17.000Z,28.16
2023-05-21T11:44:21.000Z,28.5
2023-05-21T11:45:25.000Z,28.71
2023-05-21T11:46:29.000Z,28.9
2023-05-21T11:47:32.000Z,29.06
2023-05-21T11:48:36.000Z,28.75
2023-05-21T11:49:40.000Z,28.75
2023-05-21T11:50:44.000Z,28.64
2023-05-21T11:51:47.000Z,28.42
2023-05-21T11:52:51.000Z,28.66
2023-05-21T11:53:55.000Z,28.8
2023-05-21T11:54:59.000Z,29.0
2023-05-21T11:56:02.000Z,29.12
2023-05-21T11:57:06.000Z,29.56
2023-05-21T11:58:10.000Z,29.8
2023-05-21T11:59:14.000Z,30.02
2023-05-21T12:00:18.000Z,30.14
2023-05-21T12:01:22.000Z,30.22
2023-05-21T12:02:25.000Z,30.24
2023-05-21T12:03:29.000Z,30.43
2023-05-21T12:04:33.000Z,30.77
2023-05-21T12:05:37.000Z,30.48
2023-05-21T12:06:41.000Z,30.67
2023-05-21T12:07:44.000Z,30.89
2023-05-21T12:08:48.000Z,31.19
2023-05-21T12:09:52.000Z,31.1
2023-05-21T12:10:56.000Z,30.24
2023-05-21T12:11:59.000Z,30.55
2023-05-21T12:13:03.000Z,30.82
2023-05-21T12:14:07.000Z,31.2
2023-05-21T12:15:11.000Z,31.64
2023-05-21T12:16:15.000Z,32.01
2023-05-21T12:17:18.000Z,32.32
2023-05-21T12:18:22.000Z,32.7
2023-05-21T12:19:26.000Z,32.92
2023-05-21T12:20:30.000Z,32.6
2023-05-21T12:21:34.000Z,32.46
2023-05-21T12:22:37.000Z,32.38
2023-05-21T12:23:41.000Z,32.64
2023-05-21T12:24:45.000Z,32.68
2023-05-21T12:25:49.000Z,32.76
2023-05-21T12:26:52.000Z,32.82
2023-05-21T12:27:56.000Z,32.99
2023-05-21T12:29:00.000Z,32.45
2023-05-21T12:30:04.000Z,31.64
2023-05-21T12:31:08.000Z,31.1
2023-05-21T12:32:11.000Z,30.26
2023-05-21T12:33:15.000Z,29.84
2023-05-21T12:34:19.000Z,29.66
2023-05-21T12:35:23.000Z,29.37
2023-05-21T12:36:26.000Z,29.0
2023-05-21T12:37:30.000Z,28.31
2023-05-21T12:38:34.000Z,27.79
2023-05-21T12:39:38.000Z,28.1
2023-05-21T12:40:41.000Z,28.3
2023-05-21T12:41:45.000Z,28.25
2023-05-21T12:42:49.000Z,28.2
2023-05-21T12:43:53.000Z,28.44
2023-05-21T12:44:57.000Z,28.64
2023-05-21T12:46:00.000Z,28.37
2023-05-21T12:47:04.000Z,28.49
2023-05-21T12:48:08.000Z,28.83
2023-05-21T12:49:12.000Z,28.96
2023-05-21T12:50:15.000Z,29.28
2023-05-21T12:51:19.000Z,29.44
2023-05-21T12:52:23.000Z,29.39
2023-05-21T12:53:27.000Z,29.43
2023-05-21T12:54:30.000Z,29.65
2023-05-21T12:55:34.000Z,30.07
2023-05-21T12:56:38.000Z,30.2
2023-05-21T12:57:42.000Z,30.14
2023-05-21T12:58:45.000Z,30.28
2023-05-21T12:59:49.000Z,30.05
2023-05-21T13:00:53.000Z,30.07
2023-05-21T13:01:57.000Z,30.17
2023-05-21T13:03:01.000Z,30.37
2023-05-21T13:04:04.000Z,30.26
2023-05-21T13:05:08.000Z,30.21
2023-05-21T13:06:12.000Z,30.52
2023-05-21T13:07:16.000Z,30.59
2023-05-21T13:08:19.000Z,30.77
2023-05-21T13:09:23.000Z,30.93
2023-05-21T13:10:27.000Z,30.71
2023-05-21T13:11:31.000Z,30.62
2023-05-21T13:12:35.000Z,29.73
2023-05-21T13:13:38.000Z,29.86
2023-05-21T13:14:42.000Z,30.21
2023-05-21T13:15:46.000Z,30.0
2023-05-21T13:16:50.000Z,29.15
2023-05-21T13:17:54.000Z,29.22
2023-05-21T13:18:58.000Z,29.24
2023-05-21T13:20:01.000Z,29.68
2023-05-21T13:21:05.000Z,30.21
2023-05-21T13:22:09.000Z,30.73
2023-05-21T13:23:12.000Z,31.14
2023-05-21T13:24:16.000Z,31.37
2023-05-21T13:25:20.000Z,31.54
2023-05-21T13:26:24.000Z,31.49
2023-05-21T13:27:28.000Z,31.07
2023-05-21T13:28:31.000Z,30.96
2023-05-21T13:29:35.000Z,30.74
2023-05-21T13:30:40.000Z,30.45
2023-05-21T13:31:44.000Z,30.46
2023-05-21T13:32:48.000Z,30.62
2023-05-21T13:33:52.000Z,30.83
2023-05-21T13:34:55.000Z,30.78
2023-05-21T13:35:59.000Z,30.82
2023-05-21T13:37:03.000Z,30.75
2023-05-21T13:38:07.000Z,30.52
2023-05-21T13:39:11.000Z,30.14
2023-05-21T13:40:14.000Z,29.24
2023-05-21T13:41:18.000Z,29.25
2023-05-21T13:42:22.000Z,28.86
2023-05-21T13:43:26.000Z,29.04
2023-05-21T13:44:30.000Z,28.71
2023-05-21T13:45:33.000Z,28.86